createdAt,value
2023-04-02T00:03:45.543Z,0.29
2023-04-02T00:09:25.517Z,0.16
2023-04-02T00:14:51.466Z,0.27
2023-04-02T00:20:15.200Z,0.18
2023-04-02T00:25:37.616Z,0.27
2023-04-02T00:31:01.132Z,0.31
2023-04-02T00:36:25.103Z,0.40
2023-04-02T00:41:47.487Z,0.18
2023-04-02T00:47:09.396Z,0.62
2023-04-02T00:52:33.295Z,0.27
2023-04-02T00:57:53.155Z,0.26
2023-04-02T01:03:17.510Z,0.23
2023-04-02T01:08:51.010Z,0.23
2023-04-02T01:14:54.190Z,0.45
2023-04-02T01:20:17.146Z,0.26
2023-04-02T01:26:09.574Z,0.09
2023-04-02T01:31:35.691Z,0.25
2023-04-02T01:36:58.209Z,0.19
2023-04-02T01:42:38.138Z,0.15
2023-04-02T01:47:59.160Z,0.18
2023-04-02T01:53:20.969Z,0.12
2023-04-02T01:58:46.609Z,0.21
2023-04-02T02:04:11.520Z,0.72
2023-04-02T02:09:36.164Z,0.28
2023-04-02T02:15:01.549Z,0.14
2023-04-02T02:20:31.042Z,0.14
2023-04-02T02:25:55.383Z,0.60
2023-04-02T02:31:18.534Z,0.25
2023-04-02T02:36:43.740Z,0.27
2023-04-02T02:42:05.425Z,0.42
2023-04-02T02:47:32.684Z,0.50
2023-04-02T02:52:57.396Z,0.31
2023-04-02T02:58:18.474Z,0.18
2023-04-02T03:03:38.243Z,0.73
2023-04-02T03:09:02.464Z,0.22
2023-04-02T03:15:20.046Z,0.53
2023-04-02T03:20:43.952Z,0.13
2023-04-02T03:26:09.209Z,0.32
2023-04-02T03:31:34.116Z,0.53
2023-04-02T03:36:59.597Z,0.24
2023-04-02T03:42:24.659Z,0.36
2023-04-02T03:47:48.035Z,0.25
2023-04-02T03:53:12.985Z,0.55
2023-04-02T03:58:38.423Z,0.29
2023-04-02T04:04:02.340Z,0.29
2023-04-02T04:09:26.680Z,0.28
2023-04-02T04:14:47.992Z,0.60
2023-04-02T04:20:14.223Z,0.38
2023-04-02T04:25:37.161Z,0.49
2023-04-02T04:31:01.733Z,0.48
2023-04-02T04:36:28.204Z,0.55
2023-04-02T04:41:53.640Z,0.79
2023-04-02T04:47:18.996Z,0.55
2023-04-02T04:52:44.420Z,0.46
2023-04-02T04:58:08.917Z,0.81
2023-04-02T05:03:34.101Z,0.36
2023-04-02T05:08:59.040Z,0.50
2023-04-02T05:14:21.356Z,0.47
2023-04-02T05:19:45.565Z,0.53
2023-04-02T05:25:11.215Z,0.67
2023-04-02T05:30:37.373Z,0.75
2023-04-02T05:36:01.447Z,0.63
2023-04-02T05:41:23.273Z,0.55
2023-04-02T05:46:48.137Z,0.52
2023-04-02T05:52:13.227Z,0.80
2023-04-02T05:57:44.427Z,0.54
2023-04-02T06:02:59.183Z,0.77
2023-04-02T06:08:24.973Z,0.58
2023-04-02T06:14:19.370Z,0.73
2023-04-02T06:19:44.413Z,0.55
2023-04-02T06:25:10.653Z,0.46
2023-04-02T06:30:35.547Z,0.53
2023-04-02T06:36:01.374Z,0.59
2023-04-02T06:41:27.119Z,0.43
2023-04-02T06:46:52.212Z,0.60
2023-04-02T06:52:13.928Z,0.42
2023-04-02T06:57:34.854Z,0.57
2023-04-02T07:03:01.201Z,0.73
2023-04-02T07:08:25.852Z,0.45
2023-04-02T07:13:51.965Z,0.60
2023-04-02T07:19:17.296Z,0.77
2023-04-02T07:24:42.384Z,0.65
2023-04-02T07:30:06.201Z,0.69
2023-04-02T07:35:31.986Z,0.58
2023-04-02T07:40:57.281Z,0.72
2023-04-02T07:46:20.869Z,0.75
2023-04-02T07:51:45.859Z,0.61
2023-04-02T07:57:10.617Z,0.55
2023-04-02T08:02:39.238Z,0.47
2023-04-02T08:08:04.660Z,0.51
2023-04-02T08:13:29.191Z,0.34
2023-04-02T08:19:11.320Z,0.54
2023-04-02T08:24:54.624Z,0.62
2023-04-02T08:30:19.960Z,0.65
2023-04-02T08:35:42.070Z,0.47
2023-04-02T08:41:05.108Z,0.54
2023-04-02T08:46:27.920Z,0.45
2023-04-02T08:51:53.314Z,0.69
2023-04-02T08:57:17.657Z,0.81
2023-04-02T09:02:43.656Z,0.82
2023-04-02T09:08:07.244Z,0.98
2023-04-02T09:13:33.069Z,1.22
2023-04-02T09:18:58.809Z,0.97
2023-04-02T09:24:28.273Z,0.67
2023-04-02T09:29:53.107Z,0.29
2023-04-02T09:35:25.402Z,0.22
2023-04-02T09:40:41.501Z,0.10
2023-04-02T09:46:10.707Z,0.17
2023-04-02T09:51:34.190Z,0.09
2023-04-02T09:56:59.907Z,0.13
2023-04-02T10:02:48.177Z,0.13
2023-04-02T10:08:20.458Z,0.07
2023-04-02T10:13:44.571Z,0.04
2023-04-02T10:19:09.052Z,0.17
2023-04-02T10:24:34.254Z,0.07
2023-04-02T10:29:58.084Z,0.09
2023-04-02T10:35:22.589Z,0.07
2023-04-02T10:40:51.757Z,0.15
2023-04-02T10:46:15.006Z,0.06
2023-04-02T10:51:39.561Z,0.07
2023-04-02T10:57:03.056Z,0.11
2023-04-02T11:02:30.119Z,0.07
2023-04-02T11:07:57.175Z,0.11
2023-04-02T11:13:17.169Z,0.08
2023-04-02T11:18:38.876Z,0.04
2023-04-02T11:24:37.941Z,0.10
2023-04-02T11:30:05.534Z,0.12
2023-04-02T11:35:33.581Z,0.21
2023-04-02T11:40:53.561Z,0.15
2023-04-02T11:46:19.172Z,0.07
2023-04-02T11:52:11.613Z,0.31
2023-04-02T11:57:35.719Z,0.54
2023-04-02T12:03:00.929Z,0.73
2023-04-02T12:08:33.023Z,0.42
2023-04-02T12:14:00.064Z,0.19
2023-04-02T12:19:35.757Z,0.24
2023-04-02T12:25:03.261Z,0.07
2023-04-02T12:30:39.952Z,0.07
2023-04-02T12:36:05.674Z,0.07
2023-04-02T12:41:32.870Z,0.13
2023-04-02T12:47:16.935Z,0.12
2023-04-02T12:52:39.094Z,0.07
2023-04-02T12:58:00.391Z,0.25
2023-04-02T13:03:36.600Z,0.09
2023-04-02T13:09:01.352Z,0.25
2023-04-02T13:14:36.862Z,0.16
2023-04-02T13:20:01.932Z,0.10
2023-04-02T13:25:48.608Z,0.18
2023-04-02T13:31:14.652Z,0.14
2023-04-02T13:36:41.134Z,0.14
2023-04-02T13:42:06.077Z,0.08
2023-04-02T13:47:30.980Z,0.13
2023-04-02T13:52:53.271Z,0.11
2023-04-02T13:58:18.158Z,0.17
2023-04-02T14:03:43.538Z,0.24
2023-04-02T14:09:07.922Z,0.25
2023-04-02T14:14:29.736Z,0.58
2023-04-02T14:20:18.560Z,0.47
2023-04-02T14:25:47.904Z,0.32
2023-04-02T14:31:27.006Z,0.55
2023-04-02T14:36:51.308Z,0.27
2023-04-02T14:42:17.481Z,0.40
2023-04-02T14:47:42.560Z,0.25
2023-04-02T14:53:05.438Z,0.38
2023-04-02T14:58:30.984Z,0.42
2023-04-02T15:03:54.880Z,0.45
2023-04-02T15:09:20.120Z,0.19
2023-04-02T15:15:13.212Z,0.67
2023-04-02T15:20:39.656Z,0.41
2023-04-02T15:26:05.432Z,0.36
2023-04-02T15:31:58.947Z,0.61
2023-04-02T15:37:23.371Z,0.36
2023-04-02T15:42:51.266Z,0.31
2023-04-02T15:48:15.072Z,0.61
2023-04-02T15:53:47.656Z,1.02
2023-04-02T15:59:09.690Z,0.46
2023-04-02T16:04:48.528Z,0.34
2023-04-02T16:10:41.156Z,0.92
2023-04-02T16:15:54.839Z,0.56
2023-04-02T16:21:19.660Z,0.57
2023-04-02T16:26:44.865Z,0.51
2023-04-02T16:32:13.128Z,0.46
2023-04-02T16:37:33.182Z,0.90
2023-04-02T16:43:23.240Z,0.78
2023-04-02T16:49:13.850Z,0.78
2023-04-02T16:54:33.495Z,0.65
2023-04-02T16:59:59.630Z,0.64
2023-04-02T17:05:27.908Z,0.70
2023-04-02T17:10:52.843Z,0.89
2023-04-02T17:16:19.331Z,0.66
2023-04-02T17:21:43.938Z,0.79
2023-04-02T17:27:08.843Z,0.42
2023-04-02T17:32:36.420Z,0.35
2023-04-02T17:38:00.008Z,0.70
2023-04-02T17:43:25.450Z,0.46
2023-04-02T17:49:32.236Z,0.71
2023-04-02T17:54:56.410Z,0.57
2023-04-02T18:00:23.505Z,0.88
2023-04-02T18:05:56.575Z,0.38
2023-04-02T18:11:17.205Z,0.49
2023-04-02T18:16:44.365Z,0.40
2023-04-02T18:22:09.348Z,0.45
2023-04-02T18:27:33.722Z,0.46
2023-04-02T18:33:11.886Z,0.45
2023-04-02T18:38:50.788Z,0.27
2023-04-02T18:44:14.210Z,0.48
2023-04-02T18:50:07.170Z,0.67
2023-04-02T18:55:33.752Z,0.63
2023-04-02T19:00:59.957Z,0.29
2023-04-02T19:06:25.064Z,0.52
2023-04-02T19:11:50.795Z,0.39
2023-04-02T19:17:17.265Z,0.26
2023-04-02T19:22:43.577Z,0.33
2023-04-02T19:28:08.518Z,0.23
2023-04-02T19:33:32.364Z,0.51
2023-04-02T19:39:33.461Z,0.64
2023-04-02T19:45:20.514Z,0.83
2023-04-02T19:50:51.231Z,0.36
2023-04-02T19:56:16.666Z,0.40
2023-04-02T20:01:42.588Z,0.44
2023-04-02T20:07:04.634Z,0.31
2023-04-02T20:12:30.526Z,0.60
2023-04-02T20:17:54.536Z,0.44
2023-04-02T20:23:20.219Z,0.52
2023-04-02T20:28:43.718Z,0.48
2023-04-02T20:34:07.539Z,0.39
2023-04-02T20:39:31.669Z,0.26
2023-04-02T20:44:54.228Z,0.34
2023-04-02T20:50:20.141Z,0.23
2023-04-02T20:55:44.592Z,0.37
2023-04-02T21:01:25.561Z,0.68
2023-04-02T21:06:48.824Z,0.39
2023-04-02T21:12:14.744Z,0.41
2023-04-02T21:17:39.379Z,0.55
2023-04-02T21:23:05.230Z,0.22
2023-04-02T21:28:56.561Z,0.44
2023-04-02T21:34:17.711Z,0.83
2023-04-02T21:39:43.211Z,0.51
2023-04-02T21:45:08.751Z,0.17
2023-04-02T21:50:33.824Z,0.38
2023-04-02T21:55:58.733Z,0.35
2023-04-02T22:01:27.082Z,0.44
2023-04-02T22:06:42.047Z,0.35
2023-04-02T22:12:04.710Z,0.44
2023-04-02T22:17:30.398Z,0.50
2023-04-02T22:22:56.404Z,0.32
2023-04-02T22:28:22.497Z,0.47
2023-04-02T22:34:26.974Z,0.42
2023-04-02T22:39:50.691Z,0.53
2023-04-02T22:45:34.225Z,0.50
2023-04-02T22:50:56.945Z,0.28
2023-04-02T22:56:16.870Z,0.34
2023-04-02T23:01:41.808Z,0.19
2023-04-02T23:07:05.169Z,0.21
2023-04-02T23:12:27.705Z,0.21
2023-04-02T23:17:52.585Z,0.33
2023-04-02T23:23:16.818Z,0.32
2023-04-02T23:28:42.488Z,0.27
2023-04-02T23:34:07.886Z,0.45
2023-04-02T23:39:32.567Z,0.27
2023-04-02T23:44:55.477Z,0.62
2023-04-02T23:50:35.026Z,0.59
2023-04-02T23:55:58.651Z,0.66
